createdAt,value
2019-03-05T00:02:25.404Z,75.00
2019-03-05T00:08:27.582Z,75.00
2019-03-05T00:14:29.941Z,74.70
2019-03-05T00:20:32.147Z,74.60
2019-03-05T00:26:35.032Z,74.70
2019-03-05T00:32:37.308Z,74.40
2019-03-05T00:39:11.854Z,74.60
2019-03-05T00:45:55.916Z,74.40
2019-03-05T00:52:21.315Z,74.40
2019-03-05T00:58:40.541Z,75.10
2019-03-05T01:05:09.608Z,75.80
2019-03-05T01:11:11.988Z,75.90
2019-03-05T01:17:15.331Z,76.70
2019-03-05T01:23:17.605Z,76.80
2019-03-05T01:29:20.931Z,76.60
2019-03-05T01:35:25.231Z,76.20
2019-03-05T01:41:27.954Z,77.30
2019-03-05T01:47:32.481Z,77.90
2019-03-05T01:53:34.688Z,78.20
2019-03-05T01:59:36.891Z,78.80
2019-03-05T02:05:39.166Z,78.80
2019-03-05T02:11:41.659Z,79.00
2019-03-05T02:17:43.879Z,79.80
2019-03-05T02:24:19.627Z,80.20
2019-03-05T02:30:53.799Z,80.10
2019-03-05T02:37:30.487Z,81.40
2019-03-05T02:44:04.944Z,82.60
2019-03-05T02:51:00.322Z,80.80
2019-03-05T02:57:09.244Z,80.80
2019-03-05T03:03:25.555Z,80.50
2019-03-05T03:09:56.737Z,81.00
2019-03-05T03:15:58.908Z,80.70
2019-03-05T03:22:01.271Z,80.00
2019-03-05T03:28:03.662Z,79.60
2019-03-05T03:34:05.875Z,79.60
2019-03-05T03:40:11.589Z,78.30
2019-03-05T03:46:14.597Z,77.20
2019-03-05T03:52:19.677Z,76.40
2019-03-05T03:58:21.875Z,76.20
2019-03-05T04:04:25.141Z,76.40
2019-03-05T04:10:27.459Z,76.60
2019-03-05T04:16:29.797Z,76.60
2019-03-05T04:22:32.047Z,76.20
2019-03-05T04:28:34.485Z,75.90
2019-03-05T04:34:36.942Z,75.60
2019-03-05T04:40:39.142Z,75.90
2019-03-05T04:46:44.268Z,75.80
2019-03-05T04:52:48.820Z,75.50
2019-03-05T04:58:52.172Z,75.70
2019-03-05T05:04:55.620Z,75.20
2019-03-05T05:10:57.806Z,75.10
2019-03-05T05:17:02.059Z,74.80
2019-03-05T05:23:07.479Z,75.50
2019-03-05T05:29:11.925Z,75.40
2019-03-05T05:35:14.225Z,75.30
2019-03-05T05:41:16.436Z,74.40
2019-03-05T05:47:18.601Z,74.10
2019-03-05T05:53:21.023Z,73.80
2019-03-05T05:59:23.214Z,73.90
2019-03-05T06:05:31.267Z,73.90
2019-03-05T06:11:33.507Z,73.80
2019-03-05T06:17:36.676Z,73.50
2019-03-05T06:23:39.903Z,73.50
2019-03-05T06:29:42.216Z,73.50
2019-03-05T06:35:44.505Z,73.00
2019-03-05T06:41:46.720Z,72.70
2019-03-05T06:47:48.979Z,71.90
2019-03-05T06:53:53.007Z,71.30
2019-03-05T06:59:55.364Z,70.80
2019-03-05T07:06:35.176Z,71.30
2019-03-05T07:13:07.894Z,70.70
2019-03-05T07:19:25.467Z,69.40
2019-03-05T07:25:33.736Z,68.60
2019-03-05T07:31:36.087Z,67.70
2019-03-05T07:37:38.234Z,62.00
2019-03-05T07:43:40.479Z,56.20
2019-03-05T07:49:44.372Z,55.70
2019-03-05T07:55:46.863Z,55.60
2019-03-05T08:01:49.132Z,55.60
2019-03-05T08:07:51.935Z,56.00
2019-03-05T08:14:33.361Z,57.80
2019-03-05T08:20:35.767Z,57.10
2019-03-05T08:26:38.033Z,57.50
2019-03-05T08:32:40.403Z,59.00
2019-03-05T08:38:42.649Z,59.30
2019-03-05T08:44:50.339Z,59.00
2019-03-05T08:50:49.015Z,59.10
2019-03-05T08:56:51.436Z,59.90
2019-03-05T09:02:53.779Z,58.90
2019-03-05T09:08:56.155Z,59.00
2019-03-05T09:14:58.460Z,59.40
2019-03-05T09:21:01.127Z,58.60
2019-03-05T09:27:03.531Z,57.70
2019-03-05T09:33:05.992Z,58.00
2019-03-05T09:39:11.551Z,56.80
2019-03-05T09:45:14.906Z,55.30
2019-03-05T09:51:17.064Z,53.90
2019-03-05T09:57:19.704Z,52.80
2019-03-05T10:03:22.096Z,51.80
2019-03-05T10:09:25.989Z,51.80
2019-03-05T10:15:28.593Z,51.50
2019-03-05T10:21:30.833Z,51.30
2019-03-05T10:27:33.477Z,49.60
2019-03-05T10:33:35.695Z,50.80
2019-03-05T10:39:37.985Z,55.00
2019-03-05T10:45:43.009Z,56.50
2019-03-05T10:51:45.539Z,55.20
2019-03-05T10:57:47.942Z,53.60
2019-03-05T11:03:50.495Z,52.70
2019-03-05T11:09:53.384Z,51.50
2019-03-05T11:15:56.478Z,50.30
2019-03-05T11:21:58.727Z,47.80
2019-03-05T11:28:00.915Z,46.90
2019-03-05T11:34:03.201Z,49.50
2019-03-05T11:40:07.934Z,51.80
2019-03-05T11:46:14.585Z,52.10
2019-03-05T11:52:18.052Z,51.20
2019-03-05T11:58:20.543Z,51.80
2019-03-05T12:04:23.935Z,51.00
2019-03-05T12:10:26.220Z,50.10
2019-03-05T12:16:28.634Z,50.40
2019-03-05T12:22:31.526Z,48.90
2019-03-05T12:28:34.767Z,49.20
2019-03-05T12:34:36.993Z,47.00
2019-03-05T12:40:42.109Z,47.70
2019-03-05T12:46:44.520Z,47.90
2019-03-05T12:52:47.077Z,49.80
2019-03-05T12:58:49.471Z,49.10
2019-03-05T13:04:52.800Z,48.90
2019-03-05T13:10:55.912Z,47.50
2019-03-05T13:16:58.272Z,47.30
2019-03-05T13:23:00.680Z,47.50
2019-03-05T13:29:03.151Z,45.80
2019-03-05T13:35:07.896Z,44.40
2019-03-05T13:41:12.201Z,45.40
2019-03-05T13:47:15.982Z,43.00
2019-03-05T13:53:31.445Z,42.20
2019-03-05T13:59:44.557Z,41.20
2019-03-05T14:06:12.759Z,42.20
2019-03-05T14:12:14.986Z,43.80
2019-03-05T14:18:18.371Z,44.40
2019-03-05T14:24:20.757Z,44.40
2019-03-05T14:30:23.176Z,44.70
2019-03-05T14:36:25.714Z,44.90
2019-03-05T14:42:28.611Z,44.10
2019-03-05T14:48:30.999Z,44.80
2019-03-05T14:54:34.526Z,45.10
2019-03-05T15:00:38.019Z,45.00
2019-03-05T15:06:41.514Z,45.00
2019-03-05T15:12:43.739Z,45.20
2019-03-05T15:18:46.011Z,44.30
2019-03-05T15:24:48.698Z,44.20
2019-03-05T15:30:50.971Z,43.30
2019-03-05T15:36:54.414Z,44.20
2019-03-05T15:42:56.908Z,44.60
2019-03-05T15:48:59.283Z,47.40
2019-03-05T15:55:01.614Z,47.70
2019-03-05T16:01:04.767Z,48.60
2019-03-05T16:07:10.951Z,50.20
2019-03-05T16:13:15.385Z,52.50
2019-03-05T16:19:17.989Z,54.80
2019-03-05T16:25:22.214Z,55.60
2019-03-05T16:31:26.537Z,54.90
2019-03-05T16:37:34.137Z,52.70
2019-03-05T16:43:39.471Z,51.20
2019-03-05T16:49:52.877Z,50.40
2019-03-05T16:56:09.640Z,50.00
2019-03-05T17:02:14.001Z,49.20
2019-03-05T17:08:30.085Z,49.20
2019-03-05T17:14:32.294Z,52.00
2019-03-05T17:20:34.628Z,57.30
2019-03-05T17:26:36.967Z,59.00
2019-03-05T17:32:39.258Z,61.80
2019-03-05T17:38:41.479Z,61.00
2019-03-05T17:44:44.084Z,63.10
2019-03-05T17:50:46.250Z,66.20
2019-03-05T17:56:48.520Z,64.90
2019-03-05T18:02:50.787Z,64.30
2019-03-05T18:08:53.020Z,66.20
2019-03-05T18:14:55.176Z,69.30
2019-03-05T18:20:58.478Z,71.40
2019-03-05T18:27:01.136Z,72.10
2019-03-05T18:33:03.491Z,73.60
2019-03-05T18:39:05.775Z,76.30
2019-03-05T18:45:11.200Z,78.20
2019-03-05T18:51:13.619Z,80.10
2019-03-05T18:57:15.967Z,81.60
2019-03-05T19:03:18.242Z,83.20
2019-03-05T19:09:20.724Z,84.20
2019-03-05T19:15:23.110Z,85.20
2019-03-05T19:21:26.478Z,86.70
2019-03-05T19:27:28.880Z,86.50
2019-03-05T19:33:31.068Z,87.80
2019-03-05T19:39:36.521Z,88.20
2019-03-05T19:45:38.809Z,88.80
2019-03-05T19:51:43.055Z,90.10
2019-03-05T19:57:45.238Z,90.70
2019-03-05T20:03:47.583Z,91.00
2019-03-05T20:09:51.438Z,90.90
2019-03-05T20:15:54.657Z,91.00
2019-03-05T20:21:56.940Z,91.50
2019-03-05T20:28:01.328Z,91.00
2019-03-05T20:34:14.742Z,91.00
2019-03-05T20:40:17.674Z,90.90
2019-03-05T20:46:25.436Z,90.90
2019-03-05T20:52:27.901Z,90.80
2019-03-05T20:58:32.331Z,90.90
2019-03-05T21:04:35.517Z,90.80
2019-03-05T21:10:37.947Z,90.80
2019-03-05T21:16:40.503Z,90.90
2019-03-05T21:22:44.232Z,91.30
2019-03-05T21:28:47.456Z,91.60
2019-03-05T21:34:51.462Z,91.60
2019-03-05T21:40:53.702Z,91.70
2019-03-05T21:46:56.027Z,91.20
2019-03-05T21:52:58.490Z,91.40
2019-03-05T21:59:02.798Z,91.70
2019-03-05T22:05:05.608Z,91.50
2019-03-05T22:11:07.860Z,91.60
2019-03-05T22:17:10.192Z,91.20
2019-03-05T22:23:12.328Z,91.20
2019-03-05T22:29:14.607Z,91.00
2019-03-05T22:35:17.395Z,91.30
2019-03-05T22:41:20.691Z,91.40
2019-03-05T22:47:24.020Z,91.80
2019-03-05T22:53:26.198Z,91.50
2019-03-05T22:59:28.321Z,91.70
2019-03-05T23:05:34.536Z,91.80
2019-03-05T23:11:37.023Z,91.50
2019-03-05T23:17:43.276Z,91.20
2019-03-05T23:23:45.420Z,90.80
2019-03-05T23:29:47.784Z,90.90
2019-03-05T23:35:50.123Z,90.90
2019-03-05T23:41:52.386Z,91.00
2019-03-05T23:47:54.843Z,91.00
2019-03-05T23:53:57.055Z,90.70
2019-03-05T23:59:59.212Z,91.00
